createdAt,value
2019-01-21T00:00:54.477Z,73.33
2019-01-21T00:03:24.340Z,77.20
2019-01-21T00:05:54.022Z,83.43
2019-01-21T00:08:23.988Z,73.43
2019-01-21T00:10:53.697Z,72.70
2019-01-21T00:13:23.341Z,77.47
2019-01-21T00:15:53.109Z,70.50
2019-01-21T00:18:22.874Z,76.83
2019-01-21T00:20:52.580Z,81.03
2019-01-21T00:23:22.501Z,78.87
2019-01-21T00:25:52.294Z,94.80
2019-01-21T00:28:21.915Z,92.83
2019-01-21T00:30:51.618Z,84.07
2019-01-21T00:33:21.245Z,89.37
2019-01-21T00:35:50.897Z,94.90
2019-01-21T00:38:20.678Z,95.33
2019-01-21T00:40:50.378Z,94.13
2019-01-21T00:43:20.053Z,83.40
2019-01-21T00:45:49.986Z,76.77
2019-01-21T00:48:19.609Z,84.20
2019-01-21T00:50:49.417Z,84.43
2019-01-21T00:53:19.029Z,78.07
2019-01-21T00:55:48.940Z,89.60
2019-01-21T00:58:18.557Z,77.23
2019-01-21T01:00:48.366Z,86.67
2019-01-21T01:03:18.304Z,81.00
2019-01-21T01:05:48.168Z,75.37
2019-01-21T01:08:17.921Z,82.57
2019-01-21T01:10:47.629Z,90.40
2019-01-21T01:13:17.349Z,83.90
2019-01-21T01:15:47.292Z,94.10
2019-01-21T01:18:16.981Z,86.73
2019-01-21T01:20:47.555Z,91.90
2019-01-21T01:23:17.273Z,92.97
2019-01-21T01:25:46.930Z,89.97
2019-01-21T01:28:16.715Z,93.40
2019-01-21T01:30:46.424Z,97.10
2019-01-21T01:33:16.161Z,93.03
2019-01-21T01:35:45.822Z,93.13
2019-01-21T01:38:15.544Z,94.23
2019-01-21T01:40:45.441Z,90.90
2019-01-21T01:43:15.263Z,91.27
2019-01-21T01:45:44.990Z,90.00
2019-01-21T01:48:14.642Z,92.30
2019-01-21T01:50:44.668Z,90.70
2019-01-21T01:53:14.660Z,97.53
2019-01-21T01:55:44.557Z,98.80
2019-01-21T01:58:14.380Z,95.93
2019-01-21T02:00:44.193Z,98.23
2019-01-21T02:03:13.824Z,91.20
2019-01-21T02:05:43.483Z,91.17
2019-01-21T02:08:13.536Z,90.40
2019-01-21T02:10:43.144Z,95.73
2019-01-21T02:13:12.848Z,95.83
2019-01-21T02:15:42.464Z,86.13
2019-01-21T02:18:12.094Z,97.23
2019-01-21T02:20:44.036Z,89.40
2019-01-21T02:23:16.919Z,95.37
2019-01-21T02:25:53.886Z,95.10
2019-01-21T02:28:48.299Z,95.37
2019-01-21T02:31:56.953Z,87.90
2019-01-21T02:34:48.991Z,81.37
2019-01-21T02:37:41.442Z,80.13
2019-01-21T02:40:48.064Z,87.73
2019-01-21T02:44:11.549Z,88.83
2019-01-21T02:47:20.834Z,87.10
2019-01-21T02:50:16.421Z,92.43
2019-01-21T02:53:18.760Z,90.60
2019-01-21T02:56:29.153Z,96.43
2019-01-21T02:59:51.673Z,88.07
2019-01-21T03:03:17.020Z,95.07
2019-01-21T03:06:02.385Z,87.40
2019-01-21T03:09:12.759Z,81.57
2019-01-21T03:12:20.153Z,81.47
2019-01-21T03:15:19.489Z,75.40
2019-01-21T03:18:19.684Z,82.60
2019-01-21T03:21:52.317Z,80.70
2019-01-21T03:25:15.057Z,78.57
2019-01-21T03:28:19.664Z,79.33
2019-01-21T03:31:44.664Z,77.00
2019-01-21T03:35:04.856Z,80.63
2019-01-21T03:38:15.742Z,80.53
2019-01-21T03:41:39.319Z,80.57
2019-01-21T03:44:46.682Z,79.87
2019-01-21T03:47:35.025Z,86.67
2019-01-21T03:50:45.199Z,83.27
2019-01-21T03:53:51.213Z,84.30
2019-01-21T03:56:42.793Z,82.13
2019-01-21T03:59:54.194Z,78.57
2019-01-21T04:02:42.887Z,95.40
2019-01-21T04:05:27.305Z,90.53
2019-01-21T04:08:40.615Z,88.43
2019-01-21T04:11:34.283Z,89.63
2019-01-21T04:14:47.341Z,90.27
2019-01-21T04:18:03.440Z,89.87
2019-01-21T04:20:44.504Z,87.10
2019-01-21T04:23:37.556Z,83.03
2019-01-21T04:26:32.681Z,86.50
2019-01-21T04:29:15.210Z,86.30
2019-01-21T04:32:12.374Z,75.37
2019-01-21T04:35:13.703Z,70.70
2019-01-21T04:38:42.811Z,73.13
2019-01-21T04:41:36.517Z,73.33
2019-01-21T04:44:28.949Z,75.17
2019-01-21T04:47:13.885Z,77.57
2019-01-21T04:50:13.875Z,83.10
2019-01-21T04:53:30.641Z,78.20
2019-01-21T04:56:47.016Z,79.57
2019-01-21T04:59:59.774Z,77.33
2019-01-21T05:02:52.645Z,78.83
2019-01-21T05:05:38.401Z,74.53
2019-01-21T05:08:55.630Z,71.50
2019-01-21T05:11:42.218Z,76.17
2019-01-21T05:14:39.248Z,71.47
2019-01-21T05:18:02.587Z,74.03
2019-01-21T05:21:06.149Z,71.43
2019-01-21T05:23:58.534Z,77.53
2019-01-21T05:27:00.496Z,70.83
2019-01-21T05:29:53.236Z,73.63
2019-01-21T05:32:44.342Z,77.17
2019-01-21T05:35:55.846Z,73.87
2019-01-21T05:38:49.585Z,77.37
2019-01-21T05:41:41.952Z,75.97
2019-01-21T05:44:41.570Z,69.77
2019-01-21T05:47:51.942Z,72.90
2019-01-21T05:50:42.623Z,73.43
2019-01-21T05:53:53.845Z,72.83
2019-01-21T05:57:00.681Z,77.93
2019-01-21T06:00:20.162Z,73.67
2019-01-21T06:03:10.877Z,78.87
2019-01-21T06:06:40.362Z,84.97
2019-01-21T06:09:27.267Z,77.37
2019-01-21T06:12:07.029Z,75.10
2019-01-21T06:15:03.237Z,75.30
2019-01-21T06:18:20.153Z,69.77
2019-01-21T06:21:34.627Z,77.60
2019-01-21T06:24:39.116Z,77.50
2019-01-21T06:27:43.006Z,76.20
2019-01-21T06:30:47.335Z,78.40
2019-01-21T06:33:37.297Z,86.23
2019-01-21T06:36:25.886Z,84.73
2019-01-21T06:39:25.138Z,80.30
2019-01-21T06:42:09.458Z,87.77
2019-01-21T06:45:23.356Z,77.87
2019-01-21T06:48:36.394Z,115.13
2019-01-21T06:51:36.509Z,77.77
2019-01-21T06:54:35.185Z,84.20
2019-01-21T06:57:41.377Z,74.37
2019-01-21T07:00:38.345Z,81.73
2019-01-21T07:03:41.550Z,80.77
2019-01-21T07:07:02.514Z,79.30
2019-01-21T07:09:55.925Z,82.47
2019-01-21T07:13:00.638Z,82.03
2019-01-21T07:16:17.024Z,80.10
2019-01-21T07:19:21.578Z,75.33
2019-01-21T07:22:03.470Z,74.00
2019-01-21T07:25:19.472Z,77.87
2019-01-21T07:28:17.760Z,77.43
2019-01-21T07:31:04.780Z,76.70
2019-01-21T07:34:21.137Z,73.80
2019-01-21T07:37:35.031Z,75.50
2019-01-21T07:40:33.085Z,68.70
2019-01-21T07:43:28.726Z,70.30
2019-01-21T07:46:37.756Z,66.43
2019-01-21T07:49:39.618Z,82.53
2019-01-21T07:52:37.580Z,71.87
2019-01-21T07:55:51.717Z,73.00
2019-01-21T07:58:47.654Z,68.57
2019-01-21T08:01:31.613Z,71.60
2019-01-21T08:04:35.324Z,72.20
2019-01-21T08:07:26.422Z,68.53
2019-01-21T08:10:22.976Z,73.40
2019-01-21T08:13:30.133Z,71.03
2019-01-21T08:16:23.541Z,70.50
2019-01-21T08:19:24.808Z,65.43
2019-01-21T08:22:48.125Z,70.73
2019-01-21T08:26:05.185Z,73.43
2019-01-21T08:29:12.009Z,75.87
2019-01-21T08:32:41.720Z,73.73
2019-01-21T08:35:33.637Z,77.03
2019-01-21T08:38:42.801Z,70.87
2019-01-21T08:42:04.877Z,71.47
2019-01-21T08:45:02.306Z,76.07
2019-01-21T08:48:13.203Z,75.67
2019-01-21T08:51:05.145Z,72.93
2019-01-21T08:54:25.546Z,77.17
2019-01-21T08:57:37.245Z,69.10
2019-01-21T09:00:18.468Z,75.43
2019-01-21T09:03:14.599Z,75.17
2019-01-21T09:06:10.201Z,76.73
2019-01-21T09:09:30.030Z,71.40
2019-01-21T09:12:40.318Z,79.83
2019-01-21T09:16:06.426Z,73.00
2019-01-21T09:19:29.402Z,73.83
2019-01-21T09:22:24.102Z,77.97
2019-01-21T09:25:23.225Z,79.10
2019-01-21T09:28:42.489Z,77.20
2019-01-21T09:31:33.077Z,77.73
2019-01-21T09:34:43.135Z,77.00
2019-01-21T09:37:46.932Z,78.60
2019-01-21T09:41:02.195Z,82.77
2019-01-21T09:43:50.066Z,81.17
2019-01-21T09:46:48.194Z,74.30
2019-01-21T09:49:16.533Z,82.77
2019-01-21T09:51:57.518Z,78.23
2019-01-21T09:54:28.141Z,73.10
2019-01-21T09:56:58.849Z,74.10
2019-01-21T09:59:28.752Z,77.00
2019-01-21T10:02:00.221Z,78.53
2019-01-21T10:04:48.953Z,76.70
2019-01-21T10:07:38.774Z,75.83
2019-01-21T10:10:32.317Z,79.23
2019-01-21T10:13:51.270Z,74.27
2019-01-21T10:17:23.556Z,77.70
2019-01-21T10:20:25.449Z,83.00
2019-01-21T10:23:48.723Z,73.63
2019-01-21T10:26:54.509Z,75.00
2019-01-21T10:29:47.941Z,73.07
2019-01-21T10:33:01.496Z,74.10
2019-01-21T10:36:05.909Z,76.90
2019-01-21T10:39:28.170Z,73.97
2019-01-21T10:42:37.924Z,89.73
2019-01-21T10:45:36.915Z,83.27
2019-01-21T10:48:20.503Z,72.33
2019-01-21T10:50:59.037Z,79.27
2019-01-21T10:53:55.859Z,75.93
2019-01-21T10:56:56.960Z,72.97
2019-01-21T11:00:08.341Z,63.67
2019-01-21T11:03:31.696Z,65.23
2019-01-21T11:06:24.795Z,64.63
2019-01-21T11:09:16.108Z,64.67
2019-01-21T11:12:11.534Z,66.87
2019-01-21T11:14:58.338Z,67.40
2019-01-21T11:17:33.695Z,68.60
2019-01-21T11:20:26.926Z,64.00
2019-01-21T11:23:24.909Z,69.40
2019-01-21T11:26:47.304Z,64.00
2019-01-21T11:29:32.944Z,66.67
2019-01-21T11:32:45.656Z,60.07
2019-01-21T11:35:33.540Z,62.17
2019-01-21T11:38:19.917Z,60.00
2019-01-21T11:41:30.255Z,62.70
2019-01-21T11:44:55.636Z,56.83
2019-01-21T11:48:08.496Z,55.80
2019-01-21T11:51:08.330Z,56.43
2019-01-21T11:54:06.649Z,57.63
2019-01-21T11:56:50.732Z,58.10
2019-01-21T12:00:09.982Z,57.40
2019-01-21T12:02:56.336Z,55.70
2019-01-21T12:05:34.940Z,53.37
2019-01-21T12:08:28.752Z,55.63
2019-01-21T12:11:30.965Z,51.10
2019-01-21T12:14:39.382Z,49.47
2019-01-21T12:17:53.141Z,49.50
2019-01-21T12:20:45.608Z,48.17
2019-01-21T12:23:37.513Z,129.70
2019-01-21T12:26:47.674Z,53.93
2019-01-21T12:29:57.109Z,51.97
2019-01-21T12:32:40.115Z,52.73
2019-01-21T12:35:29.648Z,53.03
2019-01-21T12:38:21.993Z,54.67
2019-01-21T12:41:29.798Z,53.77
2019-01-21T12:44:46.796Z,54.13
2019-01-21T12:47:25.843Z,48.87
2019-01-21T12:50:24.108Z,50.03
2019-01-21T12:53:46.826Z,52.57
2019-01-21T12:57:03.243Z,53.00
2019-01-21T12:59:46.882Z,52.50
2019-01-21T13:02:37.825Z,60.37
2019-01-21T13:05:27.722Z,52.60
2019-01-21T13:08:12.108Z,54.53
2019-01-21T13:10:58.905Z,50.77
2019-01-21T13:14:11.592Z,53.60
2019-01-21T13:17:31.385Z,54.07
2019-01-21T13:20:48.504Z,47.87
2019-01-21T13:24:11.954Z,53.27
2019-01-21T13:27:05.833Z,50.30
2019-01-21T13:30:10.184Z,49.50
2019-01-21T13:32:51.834Z,55.83
2019-01-21T13:35:36.150Z,50.23
2019-01-21T13:38:42.070Z,49.80
2019-01-21T13:41:30.844Z,51.33
2019-01-21T13:44:23.915Z,50.97
2019-01-21T13:47:30.685Z,50.63
2019-01-21T13:50:15.662Z,53.23
2019-01-21T13:53:34.668Z,58.50
2019-01-21T13:56:22.532Z,52.37
2019-01-21T13:59:08.625Z,49.03
2019-01-21T14:01:50.378Z,48.00
2019-01-21T14:04:46.685Z,49.23
2019-01-21T14:07:51.824Z,52.77
2019-01-21T14:11:08.832Z,46.87
2019-01-21T14:13:59.871Z,49.63
2019-01-21T14:16:52.017Z,54.07
2019-01-21T14:19:57.668Z,50.10
2019-01-21T14:23:10.350Z,49.97
2019-01-21T14:26:20.428Z,54.13
2019-01-21T14:29:30.474Z,51.90
2019-01-21T14:32:20.989Z,51.60
2019-01-21T14:35:31.450Z,52.73
2019-01-21T14:38:28.204Z,53.47
2019-01-21T14:41:14.377Z,49.30
2019-01-21T14:44:27.127Z,52.80
2019-01-21T14:47:18.966Z,50.07
2019-01-21T14:50:01.153Z,53.87
2019-01-21T14:53:11.126Z,53.10
2019-01-21T14:56:06.941Z,54.63
2019-01-21T14:59:28.711Z,51.97
2019-01-21T15:02:32.212Z,49.33
2019-01-21T15:05:36.814Z,50.10
2019-01-21T15:08:18.532Z,52.73
2019-01-21T15:11:36.175Z,53.17
2019-01-21T15:14:50.007Z,52.97
2019-01-21T15:17:37.921Z,50.93
2019-01-21T15:20:20.426Z,55.90
2019-01-21T15:23:37.711Z,51.47
2019-01-21T15:26:38.403Z,52.97
2019-01-21T15:29:30.714Z,51.20
2019-01-21T15:32:40.659Z,51.93
2019-01-21T15:35:42.340Z,54.40
2019-01-21T15:38:46.717Z,49.83
2019-01-21T15:41:53.824Z,52.53
2019-01-21T15:44:48.430Z,50.90
2019-01-21T15:47:50.425Z,54.97
2019-01-21T15:50:48.207Z,54.60
2019-01-21T15:53:46.361Z,54.17
2019-01-21T15:56:28.788Z,53.77
2019-01-21T15:59:44.375Z,55.40
2019-01-21T16:02:44.441Z,52.00
2019-01-21T16:06:02.302Z,56.30
2019-01-21T16:09:05.976Z,56.27
2019-01-21T16:12:00.534Z,53.33
2019-01-21T16:14:37.286Z,50.57
2019-01-21T16:17:24.288Z,49.30
2019-01-21T16:20:00.851Z,64.53
2019-01-21T16:22:59.390Z,60.67
2019-01-21T16:25:46.410Z,58.03
2019-01-21T16:28:43.753Z,61.33
2019-01-21T16:31:39.286Z,59.10
2019-01-21T16:34:37.254Z,53.93
2019-01-21T16:37:13.602Z,58.40
2019-01-21T16:40:16.410Z,60.73
2019-01-21T16:42:46.485Z,56.50
2019-01-21T16:45:16.156Z,58.73
2019-01-21T16:47:45.842Z,60.73
2019-01-21T16:50:15.601Z,58.90
2019-01-21T16:52:45.521Z,103.73
2019-01-21T16:55:15.507Z,61.17
2019-01-21T16:57:45.129Z,55.93
2019-01-21T17:00:15.497Z,58.70
2019-01-21T17:02:45.167Z,134.13
2019-01-21T17:05:15.058Z,57.73
2019-01-21T17:07:44.680Z,59.10
2019-01-21T17:10:14.650Z,62.50
2019-01-21T17:12:44.269Z,61.00
2019-01-21T17:15:17.089Z,62.67
2019-01-21T17:17:46.715Z,57.40
2019-01-21T17:20:18.980Z,56.07
2019-01-21T17:22:48.984Z,56.50
2019-01-21T17:25:18.984Z,54.10
2019-01-21T17:27:48.976Z,59.37
2019-01-21T17:30:18.870Z,62.73
2019-01-21T17:32:48.893Z,85.87
2019-01-21T17:35:19.625Z,81.77
2019-01-21T17:37:49.391Z,62.80
2019-01-21T17:40:19.522Z,61.97
2019-01-21T17:42:50.608Z,59.37
2019-01-21T17:45:20.817Z,57.93
2019-01-21T17:47:50.499Z,63.30
2019-01-21T17:50:20.313Z,107.80
2019-01-21T17:52:49.997Z,62.07
2019-01-21T17:55:19.835Z,62.27
2019-01-21T17:57:49.560Z,62.23
2019-01-21T18:00:22.125Z,62.17
2019-01-21T18:02:51.840Z,68.60
2019-01-21T18:05:21.618Z,91.50
2019-01-21T18:07:51.562Z,60.17
2019-01-21T18:10:21.480Z,70.03
2019-01-21T18:12:52.392Z,77.17
2019-01-21T18:15:22.019Z,76.77
2019-01-21T18:17:51.857Z,68.57
2019-01-21T18:20:25.325Z,70.53
2019-01-21T18:22:55.373Z,68.80
2019-01-21T18:25:25.284Z,64.27
2019-01-21T18:27:54.945Z,76.30
2019-01-21T18:30:26.489Z,69.67
2019-01-21T18:32:56.442Z,71.43
2019-01-21T18:35:26.138Z,69.10
2019-01-21T18:37:56.420Z,79.07
2019-01-21T18:40:26.231Z,74.23
2019-01-21T18:42:55.938Z,76.70
2019-01-21T18:45:27.989Z,73.30
2019-01-21T18:47:58.092Z,73.17
2019-01-21T18:50:27.717Z,73.13
2019-01-21T18:52:57.403Z,78.60
2019-01-21T18:55:27.036Z,68.43
2019-01-21T18:57:56.983Z,76.63
2019-01-21T19:00:27.079Z,75.57
2019-01-21T19:02:56.704Z,74.97
2019-01-21T19:05:26.421Z,77.03
2019-01-21T19:07:56.195Z,81.70
2019-01-21T19:10:26.165Z,89.97
2019-01-21T19:12:55.818Z,74.40
2019-01-21T19:15:28.300Z,76.27
2019-01-21T19:17:58.066Z,72.10
2019-01-21T19:20:27.845Z,73.53
2019-01-21T19:22:57.540Z,77.77
2019-01-21T19:25:27.247Z,80.70
2019-01-21T19:27:57.564Z,69.10
2019-01-21T19:30:27.854Z,75.13
2019-01-21T19:32:57.545Z,76.27
2019-01-21T19:35:29.880Z,75.57
2019-01-21T19:37:59.646Z,74.47
2019-01-21T19:40:29.422Z,79.50
2019-01-21T19:42:59.040Z,76.90
2019-01-21T19:45:29.071Z,76.63
2019-01-21T19:47:59.003Z,80.10
2019-01-21T19:50:28.912Z,72.40
2019-01-21T19:52:58.533Z,76.73
2019-01-21T19:55:31.237Z,74.93
2019-01-21T19:58:00.854Z,70.70
2019-01-21T20:00:30.863Z,72.23
2019-01-21T20:03:00.513Z,81.97
2019-01-21T20:05:30.209Z,72.27
2019-01-21T20:07:59.872Z,75.57
2019-01-21T20:10:29.647Z,72.27
2019-01-21T20:12:59.685Z,68.03
2019-01-21T20:15:29.461Z,68.87
2019-01-21T20:17:59.520Z,77.33
2019-01-21T20:20:34.656Z,75.53
2019-01-21T20:23:04.649Z,75.23
2019-01-21T20:25:34.346Z,68.50
2019-01-21T20:28:04.169Z,76.47
2019-01-21T20:30:33.828Z,74.33
2019-01-21T20:33:03.533Z,77.30
2019-01-21T20:35:33.145Z,72.10
2019-01-21T20:38:03.968Z,69.83
2019-01-21T20:40:34.449Z,72.53
2019-01-21T20:43:04.100Z,70.00
2019-01-21T20:45:33.782Z,74.10
2019-01-21T20:48:03.392Z,70.20
2019-01-21T20:50:33.152Z,68.10
2019-01-21T20:53:02.849Z,65.30
2019-01-21T20:55:33.126Z,64.07
2019-01-21T20:58:03.118Z,64.03
2019-01-21T21:00:32.733Z,72.57
2019-01-21T21:03:02.427Z,76.07
2019-01-21T21:05:32.157Z,71.57
2019-01-21T21:08:01.794Z,67.47
2019-01-21T21:10:31.682Z,74.60
2019-01-21T21:13:01.394Z,70.83
2019-01-21T21:15:32.742Z,67.53
2019-01-21T21:18:02.378Z,69.70
2019-01-21T21:20:31.995Z,74.37
2019-01-21T21:23:01.617Z,88.33
2019-01-21T21:25:31.385Z,90.47
2019-01-21T21:28:01.097Z,104.43
2019-01-21T21:30:32.256Z,77.53
2019-01-21T21:33:02.076Z,84.60
2019-01-21T21:35:31.693Z,76.03
2019-01-21T21:38:01.486Z,69.40
2019-01-21T21:40:31.350Z,71.10
2019-01-21T21:43:01.269Z,67.43
2019-01-21T21:45:31.057Z,74.17
2019-01-21T21:48:01.350Z,78.07
2019-01-21T21:50:32.517Z,81.37
2019-01-21T21:53:02.381Z,77.13
2019-01-21T21:55:32.070Z,77.73
2019-01-21T21:58:02.062Z,77.20
2019-01-21T22:00:31.981Z,73.93
2019-01-21T22:03:01.898Z,72.93
2019-01-21T22:05:31.912Z,72.10
2019-01-21T22:08:01.527Z,70.53
2019-01-21T22:10:31.474Z,73.87
2019-01-21T22:13:01.074Z,75.77
2019-01-21T22:15:30.728Z,72.13
2019-01-21T22:18:00.344Z,72.67
2019-01-21T22:20:29.977Z,77.07
2019-01-21T22:22:59.583Z,71.13
2019-01-21T22:25:29.334Z,69.37
2019-01-21T22:27:58.944Z,70.10
2019-01-21T22:30:29.125Z,73.43
2019-01-21T22:32:59.024Z,71.53
2019-01-21T22:35:28.884Z,76.70
2019-01-21T22:37:58.571Z,74.20
2019-01-21T22:40:28.317Z,68.53
2019-01-21T22:42:58.073Z,82.87
2019-01-21T22:45:27.940Z,70.77
2019-01-21T22:47:57.929Z,87.47
2019-01-21T22:50:27.631Z,91.30
2019-01-21T22:52:57.249Z,84.63
2019-01-21T22:55:27.010Z,83.43
2019-01-21T22:57:56.687Z,97.67
2019-01-21T23:01:00.493Z,105.40
2019-01-21T23:03:31.122Z,98.30
2019-01-21T23:06:00.941Z,99.53
2019-01-21T23:08:30.574Z,101.10
2019-01-21T23:11:00.253Z,98.60
2019-01-21T23:13:29.931Z,103.03
2019-01-21T23:15:59.640Z,116.10
2019-01-21T23:18:29.864Z,105.60
2019-01-21T23:20:59.488Z,99.80
2019-01-21T23:23:29.397Z,101.97
2019-01-21T23:25:59.014Z,107.13
2019-01-21T23:28:28.626Z,108.53
2019-01-21T23:30:58.262Z,129.07
2019-01-21T23:33:27.905Z,117.37
2019-01-21T23:35:57.529Z,111.80
2019-01-21T23:38:27.150Z,118.50
2019-01-21T23:40:57.054Z,106.70
2019-01-21T23:43:26.672Z,126.33
2019-01-21T23:45:56.298Z,129.73
2019-01-21T23:48:25.927Z,123.40
2019-01-21T23:50:55.546Z,119.67
2019-01-21T23:53:25.242Z,137.80
2019-01-21T23:55:55.150Z,160.73
2019-01-21T23:58:24.957Z,174.57
